Time;durP1;ratioP1;P1;durP2;ratioP2;P2;SDS_P1;SDS_P2;PMS_P1;PMS_P2;Temp;Humidity;BMP_temperature;BMP_pressure;BME280_temperature;BME280_humidity;BME280_pressure;Samples;Min_cycle;Max_cycle;Signal;HPM_P1;HPM_P2
2021/12/22 00:01:08;;;;;;;42.22;27.40;;;;;;;0.42;77.73;102581.88;7394168;19;20398;-61
2021/12/22 00:03:39;;;;;;;47.45;29.17;;;;;;;0.42;77.15;102584.44;7395725;19;20010;-62
2021/12/22 00:06:08;;;;;;;47.00;27.23;;;;;;;0.37;76.95;102586.00;7393826;19;20023;-62
2021/12/22 00:08:37;;;;;;;43.47;27.33;;;;;;;0.31;76.98;102581.56;7395980;19;20018;-62
2021/12/22 00:11:06;;;;;;;44.47;26.95;;;;;;;0.26;77.45;102579.69;7399019;19;20394;-63
2021/12/22 00:13:35;;;;;;;45.97;27.88;;;;;;;0.32;77.23;102577.31;7396310;19;20007;-62
2021/12/22 00:16:04;;;;;;;47.15;27.38;;;;;;;0.29;77.03;102579.81;7395246;19;20077;-60
2021/12/22 00:18:35;;;;;;;45.97;28.30;;;;;;;0.23;77.76;102587.34;7392925;19;20029;-61
2021/12/22 00:21:05;;;;;;;46.10;28.23;;;;;;;0.25;78.02;102576.25;7394841;19;20014;-60
2021/12/22 00:23:34;;;;;;;47.35;29.02;;;;;;;0.29;77.73;102584.97;7396782;19;20029;-61
2021/12/22 00:26:03;;;;;;;45.55;27.23;;;;;;;0.27;77.43;102581.44;7397997;19;20017;-61
2021/12/22 00:28:32;;;;;;;41.30;26.35;;;;;;;0.27;77.08;102579.78;7395815;19;20010;-60
2021/12/22 00:31:08;;;;;;;46.38;28.25;;;;;;;0.26;77.21;102580.59;7394880;19;20015;-59
2021/12/22 00:33:47;;;;;;;42.42;26.83;;;;;;;0.29;77.08;102577.22;7394850;19;20026;-58
2021/12/22 00:36:15;;;;;;;45.45;27.15;;;;;;;0.23;77.22;102575.34;7392269;19;20022;-62
2021/12/22 00:38:44;;;;;;;50.40;28.23;;;;;;;0.19;77.49;102582.94;7394605;19;20324;-63
2021/12/22 00:41:13;;;;;;;43.97;26.88;;;;;;;0.23;77.47;102582.19;7394389;19;20026;-62
2021/12/22 00:43:43;;;;;;;43.20;27.10;;;;;;;0.22;77.15;102581.34;7392319;19;20007;-62
2021/12/22 00:46:12;;;;;;;45.20;28.00;;;;;;;0.18;77.18;102582.06;7393225;19;20086;-60
2021/12/22 00:48:44;;;;;;;46.35;26.85;;;;;;;0.16;77.21;102586.34;7394319;19;20018;-62
2021/12/22 00:51:13;;;;;;;43.90;26.67;;;;;;;0.14;77.16;102586.28;7393439;19;20006;-62
2021/12/22 00:53:42;;;;;;;47.47;28.58;;;;;;;0.10;77.63;102580.97;7393224;19;20018;-62
2021/12/22 00:56:10;;;;;;;44.30;27.13;;;;;;;0.10;78.24;102574.16;7393475;19;20462;-62
2021/12/22 00:58:39;;;;;;;42.05;27.83;;;;;;;0.09;77.62;102581.84;7394029;19;20122;-62
2021/12/22 01:01:08;;;;;;;46.38;27.23;;;;;;;0.08;77.49;102577.50;7392929;19;20020;-62
2021/12/22 01:03:37;;;;;;;44.42;27.17;;;;;;;0.04;77.27;102578.25;7396901;19;20023;-62
2021/12/22 01:06:09;;;;;;;45.13;27.73;;;;;;;-0.04;77.22;102578.03;7392576;19;20015;-62
2021/12/22 01:08:37;;;;;;;40.58;26.58;;;;;;;-0.19;77.15;102592.25;7394051;19;20782;-62
2021/12/22 01:11:08;;;;;;;42.33;25.17;;;;;;;-0.21;77.33;102587.88;7393413;19;20360;-62
2021/12/22 01:13:36;;;;;;;40.78;26.25;;;;;;;-0.22;77.40;102586.13;7394125;19;20039;-63
2021/12/22 01:16:06;;;;;;;42.97;27.17;;;;;;;-0.23;77.81;102592.09;7393546;19;20122;-62
2021/12/22 01:18:36;;;;;;;45.25;27.58;;;;;;;-0.26;78.77;102585.16;7394382;19;20483;-63
2021/12/22 01:21:13;;;;;;;43.78;27.08;;;;;;;-0.21;78.81;102583.56;7392423;19;20026;-62
2021/12/22 01:24:00;;;;;;;43.10;26.80;;;;;;;-0.12;78.14;102588.13;7397521;19;20018;-62
2021/12/22 01:26:30;;;;;;;40.42;26.35;;;;;;;-0.14;77.42;102592.38;7391905;19;20011;-63
2021/12/22 01:29:00;;;;;;;42.63;24.98;;;;;;;-0.19;77.31;102593.94;7391554;19;20022;-62
2021/12/22 01:31:29;;;;;;;46.45;27.48;;;;;;;-0.24;77.52;102604.09;7390685;19;20029;-63
2021/12/22 01:33:58;;;;;;;45.72;27.15;;;;;;;-0.27;77.62;102591.13;7393743;19;20014;-63
2021/12/22 01:36:27;;;;;;;43.95;26.15;;;;;;;-0.25;77.51;102589.47;7391755;19;20357;-64
2021/12/22 01:38:58;;;;;;;45.25;27.90;;;;;;;-0.27;77.53;102588.56;7396659;19;20017;-61
2021/12/22 01:41:28;;;;;;;51.13;29.33;;;;;;;-0.32;77.32;102582.38;7391863;19;20018;-61
2021/12/22 01:43:57;;;;;;;48.55;27.30;;;;;;;-0.43;77.23;102582.09;7392944;19;20608;-62
2021/12/22 01:49:19;;;;;;;45.67;27.17;;;;;;;-0.45;78.39;102578.56;7390481;19;20086;-61
2021/12/22 01:51:54;;;;;;;42.15;26.48;;;;;;;-0.39;78.08;102577.88;7391712;19;20456;-61
2021/12/22 01:54:36;;;;;;;48.58;27.63;;;;;;;-0.36;78.60;102589.16;7396973;19;20306;-62
2021/12/22 01:57:09;;;;;;;49.95;28.30;;;;;;;-0.39;77.80;102580.47;7392665;19;20017;-60
2021/12/22 01:59:37;;;;;;;;;;;;;;;-0.49;77.37;102584.47;7393400;19;20555;-61
2021/12/22 02:02:08;;;;;;;47.33;26.27;;;;;;;-0.62;77.39;102587.50;7390388;19;19925;-64
2021/12/22 02:04:38;;;;;;;45.58;26.70;;;;;;;-0.66;77.96;102581.41;7392477;19;20534;-62
2021/12/22 02:07:08;;;;;;;49.78;27.92;;;;;;;-0.66;77.96;102583.97;7390249;19;20030;-63
2021/12/22 02:10:01;;;;;;;44.08;25.88;;;;;;;-0.63;77.75;102594.38;7391829;19;20111;-63
2021/12/22 02:12:35;;;;;;;46.85;27.58;;;;;;;-0.66;77.90;102580.50;7391552;19;20010;-64
2021/12/22 02:15:05;;;;;;;46.53;25.55;;;;;;;-0.62;77.95;102587.50;7392019;19;20363;-62
2021/12/22 02:17:35;;;;;;;46.30;25.77;;;;;;;-0.64;77.75;102590.03;7391522;19;20018;-62
2021/12/22 02:20:07;;;;;;;42.70;25.70;;;;;;;-0.68;77.38;102580.47;7389538;19;20022;-61
2021/12/22 02:22:39;;;;;;;41.67;24.77;;;;;;;-0.70;77.79;102575.28;7391897;19;20054;-63
2021/12/22 02:25:14;;;;;;;44.30;25.98;;;;;;;-0.74;77.72;102568.28;7392930;19;20014;-63
2021/12/22 02:27:49;;;;;;;44.95;26.23;;;;;;;-0.77;77.81;102585.34;7386892;19;20007;-63
2021/12/22 02:30:24;;;;;;;45.83;25.20;;;;;;;-0.84;77.58;102570.53;7387338;19;20420;-62
2021/12/22 02:33:09;;;;;;;43.20;25.17;;;;;;;-0.89;77.54;102575.50;7387836;19;20668;-64
2021/12/22 02:35:46;;;;;;;48.03;26.85;;;;;;;-0.95;77.75;102571.03;7389946;19;20025;-62
2021/12/22 02:38:18;;;;;;;45.30;25.02;;;;;;;-0.92;78.63;102575.41;7392064;19;20029;-64
2021/12/22 02:40:49;;;;;;;52.28;27.90;;;;;;;-0.91;79.03;102574.59;7389256;19;20100;-65
2021/12/22 02:43:21;;;;;;;44.33;26.58;;;;;;;-0.83;78.85;102575.72;7388699;19;20078;-63
2021/12/22 02:45:51;;;;;;;;;;;;;;;-0.78;78.46;102565.56;7392932;19;20019;-63
2021/12/22 02:48:21;;;;;;;47.92;26.90;;;;;;;-0.88;77.71;102577.28;7389346;19;19914;-60
2021/12/22 02:50:54;;;;;;;43.10;25.45;;;;;;;-0.92;77.64;102565.13;7389046;19;20028;-63
2021/12/22 02:53:28;;;;;;;46.67;23.90;;;;;;;-0.88;77.60;102572.13;7391573;19;20025;-63
2021/12/22 02:56:00;;;;;;;43.45;25.05;;;;;;;-0.93;77.44;102564.25;7388377;19;20022;-62
2021/12/22 02:58:36;;;;;;;44.92;24.75;;;;;;;-0.93;77.47;102573.66;7389115;19;20022;-63
2021/12/22 03:01:22;;;;;;;40.10;23.98;;;;;;;-0.97;77.47;102562.41;7388818;19;20018;-63
2021/12/22 03:03:57;;;;;;;42.70;24.92;;;;;;;-0.99;78.06;102571.81;7389503;19;20010;-64
2021/12/22 03:06:35;;;;;;;46.80;25.83;;;;;;;-0.91;77.99;102574.59;7389547;19;20428;-64
2021/12/22 03:09:17;;;;;;;45.55;25.75;;;;;;;-0.93;78.22;102574.56;7392829;19;20030;-64
2021/12/22 03:11:47;;;;;;;47.38;26.83;;;;;;;-0.96;77.67;102584.75;7390594;19;20555;-64
2021/12/22 03:14:17;;;;;;;44.65;25.02;;;;;;;-1.00;77.38;102590.63;7396066;19;20194;-62
2021/12/22 03:16:46;;;;;;;46.83;25.25;;;;;;;-1.01;77.22;102591.44;7388097;19;20015;-64
2021/12/22 03:19:17;;;;;;;43.80;24.83;;;;;;;-0.98;77.38;102595.81;7389291;19;20010;-59
2021/12/22 03:21:52;;;;;;;48.58;26.42;;;;;;;-1.01;77.24;102600.88;7389837;19;20017;-64
2021/12/22 03:24:22;;;;;;;43.47;24.95;;;;;;;-1.06;77.32;102603.28;7393084;19;20041;-64
2021/12/22 03:26:51;;;;;;;48.78;25.60;;;;;;;-1.08;77.81;102604.94;7388369;19;20014;-65
2021/12/22 03:29:21;;;;;;;44.13;25.38;;;;;;;-0.99;77.57;102601.78;7389271;19;20509;-65
2021/12/22 03:31:50;;;;;;;44.70;24.40;;;;;;;-0.99;77.11;102596.63;7387909;19;20127;-61
2021/12/22 03:34:19;;;;;;;41.22;23.58;;;;;;;-1.02;77.08;102605.13;7390572;19;20011;-63
2021/12/22 03:36:51;;;;;;;46.22;26.15;;;;;;;-1.02;77.20;102602.56;7388635;19;20014;-62
2021/12/22 03:39:20;;;;;;;42.30;25.37;;;;;;;-0.99;77.30;102599.22;7393980;19;20037;-64
2021/12/22 03:41:49;;;;;;;43.83;25.08;;;;;;;-1.07;77.19;102588.69;7389372;19;20310;-61
2021/12/22 03:44:19;;;;;;;41.10;23.88;;;;;;;-1.06;76.95;102587.84;7390906;19;20011;-61
2021/12/22 03:46:48;;;;;;;40.83;23.75;;;;;;;-1.11;76.97;102589.41;7388944;19;20013;-61
2021/12/22 03:49:18;;;;;;;42.03;24.40;;;;;;;-1.14;77.03;102591.88;7387578;19;20014;-63
2021/12/22 03:51:46;;;;;;;44.00;24.73;;;;;;;-1.20;76.95;102589.97;7388890;19;20021;-59
2021/12/22 03:54:18;;;;;;;41.22;23.20;;;;;;;-1.23;77.12;102583.03;7398659;19;20030;-63
2021/12/22 03:56:47;;;;;;;44.25;24.67;;;;;;;-1.23;77.33;102583.03;7393069;19;20447;-63
2021/12/22 03:59:16;;;;;;;46.03;25.85;;;;;;;-1.19;77.24;102581.41;7392129;19;20109;-65
2021/12/22 04:01:45;;;;;;;45.08;25.52;;;;;;;-1.24;77.61;102583.84;7393553;19;20030;-62
2021/12/22 04:04:17;;;;;;;43.60;25.15;;;;;;;-1.22;77.80;102574.50;7393866;19;20504;-64
2021/12/22 04:06:46;;;;;;;47.92;26.13;;;;;;;-1.17;77.71;102566.06;7393014;19;20014;-64
2021/12/22 04:09:26;;;;;;;45.70;26.15;;;;;;;-1.19;77.78;102562.56;7394837;19;20393;-62
2021/12/22 04:11:55;;;;;;;45.55;26.42;;;;;;;-1.20;77.38;102571.09;7392570;19;20097;-63
2021/12/22 04:14:24;;;;;;;45.25;24.77;;;;;;;-1.17;77.19;102566.91;7394442;19;20075;-61
2021/12/22 04:16:53;;;;;;;44.90;24.40;;;;;;;-1.17;77.12;102577.22;7393383;19;20026;-63
2021/12/22 04:19:22;;;;;;;45.17;24.38;;;;;;;-1.13;76.90;102563.63;7391257;19;20015;-64
2021/12/22 04:21:51;;;;;;;41.33;24.10;;;;;;;-1.09;76.94;102565.47;7392025;19;20014;-63
2021/12/22 04:24:23;;;;;;;46.55;23.92;;;;;;;-1.09;76.72;102569.72;7396917;19;20022;-65
2021/12/22 04:26:53;;;;;;;46.75;26.13;;;;;;;-1.16;77.11;102566.09;7391560;19;20023;-63
2021/12/22 04:29:22;;;;;;;48.35;26.42;;;;;;;-1.19;76.57;102563.41;7393535;19;20021;-64
2021/12/22 04:31:51;;;;;;;46.28;25.13;;;;;;;-1.23;76.51;102571.88;7395455;19;20053;-63
2021/12/22 04:34:20;;;;;;;44.13;25.55;;;;;;;-1.22;76.68;102559.06;7393666;19;20493;-64
2021/12/22 04:36:49;;;;;;;47.65;25.73;;;;;;;-1.26;77.21;102557.22;7392001;19;20013;-63
2021/12/22 04:39:18;;;;;;;47.78;26.25;;;;;;;-1.22;77.32;102559.06;7396033;19;20018;-63
2021/12/22 04:41:50;;;;;;;51.03;26.80;;;;;;;-1.24;76.56;102550.41;7392462;19;20026;-61
2021/12/22 04:44:19;;;;;;;49.83;25.90;;;;;;;-1.34;76.45;102547.50;7391325;19;20025;-64
2021/12/22 04:46:48;;;;;;;42.63;23.63;;;;;;;-1.43;76.55;102537.78;7391620;19;20086;-61
2021/12/22 04:49:17;;;;;;;45.45;25.20;;;;;;;-1.47;76.57;102544.50;7391158;19;20030;-62
2021/12/22 04:51:50;;;;;;;45.35;24.98;;;;;;;-1.56;76.75;102541.66;7390262;19;20122;-59
2021/12/22 04:54:31;;;;;;;43.97;25.15;;;;;;;-1.57;76.89;102535.63;7393752;19;20026;-62
2021/12/22 04:57:02;;;;;;;43.60;24.83;;;;;;;-1.60;77.14;102537.22;7392152;19;20011;-62
2021/12/22 04:59:31;;;;;;;46.90;26.40;;;;;;;-1.58;77.45;102533.88;7392588;19;20045;-61
2021/12/22 05:02:00;;;;;;;46.35;25.73;;;;;;;-1.52;77.12;102534.91;7390669;19;20018;-62
2021/12/22 05:04:29;;;;;;;45.63;24.92;;;;;;;-1.52;76.93;102524.63;7390043;19;20010;-61
2021/12/22 05:06:58;;;;;;;43.53;24.63;;;;;;;-1.56;76.69;102526.22;7388845;19;20213;-61
2021/12/22 05:09:27;;;;;;;46.55;25.95;;;;;;;-1.58;76.55;102525.28;7393101;19;20018;-63
2021/12/22 05:11:56;;;;;;;45.10;23.67;;;;;;;-1.57;76.73;102529.63;7391282;19;20014;-63
2021/12/22 05:14:27;;;;;;;48.15;26.10;;;;;;;-1.62;76.54;102531.13;7393863;19;20014;-62
2021/12/22 05:17:00;;;;;;;44.80;24.73;;;;;;;-1.76;76.60;102526.41;7393679;19;20017;-62
2021/12/22 05:19:29;;;;;;;;;;;;;;;-1.80;76.79;102526.25;7394211;19;20006;-64
2021/12/22 05:21:58;;;;;;;46.28;23.95;;;;;;;-1.82;76.81;102528.78;7391969;19;19975;-63
2021/12/22 05:24:27;;;;;;;38.63;23.02;;;;;;;-1.84;76.89;102530.41;7397094;19;20189;-63
2021/12/22 05:26:55;;;;;;;44.95;23.52;;;;;;;-1.84;76.90;102527.84;7391348;19;20018;-62
2021/12/22 05:29:24;;;;;;;45.65;24.23;;;;;;;-1.84;76.99;102521.84;7392876;19;20014;-62
2021/12/22 05:31:56;;;;;;;44.53;25.35;;;;;;;-1.82;76.85;102521.06;7391035;19;20038;-63
2021/12/22 05:34:25;;;;;;;48.78;24.35;;;;;;;-1.82;76.92;102518.50;7391199;19;20011;-63
2021/12/22 05:36:54;;;;;;;46.13;24.88;;;;;;;-1.85;76.90;102514.94;7396308;19;20148;-62
2021/12/22 05:39:23;;;;;;;46.72;24.38;;;;;;;-1.85;77.61;102517.50;7397123;19;20362;-63
2021/12/22 05:41:54;;;;;;;45.85;24.67;;;;;;;-1.85;76.86;102510.66;7390878;19;20488;-61
2021/12/22 05:44:23;;;;;;;47.05;25.25;;;;;;;-1.89;76.73;102520.78;7394871;19;20370;-61
2021/12/22 05:46:52;;;;;;;48.65;25.30;;;;;;;-1.90;76.71;102525.06;7395156;19;20400;-58
2021/12/22 05:49:23;;;;;;;45.08;24.83;;;;;;;-1.88;76.87;102518.28;7394507;19;20022;-61
2021/12/22 05:51:52;;;;;;;48.37;26.13;;;;;;;-1.87;77.18;102519.16;7393931;19;20085;-62
2021/12/22 05:54:21;;;;;;;43.75;25.02;;;;;;;-1.90;76.88;102514.78;7399604;19;20025;-61
2021/12/22 05:56:50;;;;;;;44.85;25.42;;;;;;;-1.88;76.65;102523.41;7397041;19;20025;-59
2021/12/22 05:59:19;;;;;;;45.95;25.45;;;;;;;-1.93;76.68;102520.69;7394195;19;20024;-60
2021/12/22 06:01:48;;;;;;;48.92;25.23;;;;;;;-1.90;76.85;102519.94;7389037;19;20025;-59
2021/12/22 06:04:17;;;;;;;49.47;25.95;;;;;;;-1.95;76.76;102518.88;7389998;19;20367;-64
2021/12/22 06:06:48;;;;;;;50.30;27.30;;;;;;;-2.09;76.82;102523.56;7389497;19;20017;-65
2021/12/22 06:09:17;;;;;;;48.58;26.30;;;;;;;-2.10;77.01;102521.81;7394743;19;20026;-63
2021/12/22 06:11:46;;;;;;;51.28;28.65;;;;;;;-2.09;76.97;102521.84;7391008;19;20025;-62
2021/12/22 06:14:15;;;;;;;51.15;26.33;;;;;;;-2.09;77.25;102511.56;7389665;19;20090;-61
2021/12/22 06:16:44;;;;;;;54.17;27.17;;;;;;;-2.08;77.67;102507.31;7387753;19;20014;-63
2021/12/22 06:19:14;;;;;;;51.60;27.63;;;;;;;-2.07;77.74;102503.94;7390620;19;20553;-62
2021/12/22 06:21:46;;;;;;;53.17;27.92;;;;;;;-2.04;77.94;102500.59;7386551;19;20141;-59
2021/12/22 06:24:18;;;;;;;55.60;29.00;;;;;;;-2.02;77.94;102498.94;7389022;19;20018;-61
2021/12/22 06:26:47;;;;;;;56.47;28.75;;;;;;;-2.00;77.54;102500.75;7387693;19;20010;-61
2021/12/22 06:29:16;;;;;;;52.97;28.42;;;;;;;-1.96;77.42;102512.03;7386758;19;20085;-62
2021/12/22 06:31:44;;;;;;;52.05;27.60;;;;;;;-2.03;77.32;102505.78;7387175;19;20341;-63
2021/12/22 06:34:14;;;;;;;57.90;28.45;;;;;;;-2.07;77.92;102518.47;7388238;19;20021;-62
2021/12/22 06:36:42;;;;;;;57.03;28.23;;;;;;;-2.03;77.66;102512.63;7387684;19;20061;-61
2021/12/22 06:39:11;;;;;;;53.50;28.73;;;;;;;-2.02;77.58;102512.69;7391232;19;20034;-61
2021/12/22 06:41:43;;;;;;;53.95;29.05;;;;;;;-2.03;77.72;102510.91;7387283;19;20019;-61
2021/12/22 06:44:12;;;;;;;62.03;31.47;;;;;;;-2.06;77.42;102525.34;7386534;19;20018;-62
2021/12/22 06:46:41;;;;;;;56.05;29.05;;;;;;;-2.03;77.61;102517.75;7386668;19;20015;-62
2021/12/22 06:49:11;;;;;;;56.92;28.30;;;;;;;-2.01;77.63;102511.84;7385772;19;20014;-62
2021/12/22 06:51:40;;;;;;;57.15;29.33;;;;;;;-1.99;77.60;102519.59;7384674;19;20109;-62
2021/12/22 06:54:09;;;;;;;56.30;30.05;;;;;;;-2.03;77.88;102522.91;7389639;19;20022;-62
2021/12/22 06:56:38;;;;;;;49.78;27.40;;;;;;;-2.03;77.90;102523.75;7389383;19;20352;-63
2021/12/22 06:59:12;;;;;;;53.50;28.42;;;;;;;-2.05;78.16;102525.38;7384821;19;20090;-62
2021/12/22 07:01:41;;;;;;;57.90;29.42;;;;;;;-1.98;77.72;102519.69;7387628;19;20026;-64
2021/12/22 07:04:10;;;;;;;55.47;29.20;;;;;;;-2.09;77.76;102523.56;7386959;19;20044;-62
2021/12/22 07:06:39;;;;;;;59.03;29.60;;;;;;;-2.09;78.09;102519.28;7387222;19;20007;-63
2021/12/22 07:09:09;;;;;;;53.05;27.23;;;;;;;-2.01;78.17;102524.69;7388832;19;20022;-62
2021/12/22 07:11:41;;;;;;;54.70;28.75;;;;;;;-2.00;77.97;102521.31;7386121;19;20018;-61
2021/12/22 07:14:13;;;;;;;54.08;28.90;;;;;;;-1.95;78.03;102524.91;7385575;19;20134;-62
2021/12/22 07:16:42;;;;;;;59.87;29.77;;;;;;;-1.96;77.98;102518.03;7385443;19;20006;-61
2021/12/22 07:19:11;;;;;;;57.25;29.38;;;;;;;-1.95;78.05;102513.75;7385316;19;20525;-65
2021/12/22 07:21:40;;;;;;;56.90;29.42;;;;;;;-1.94;78.10;102518.94;7384967;19;20014;-62
2021/12/22 07:24:10;;;;;;;58.72;30.30;;;;;;;-2.00;78.38;102513.59;7390231;19;20033;-63
2021/12/22 07:26:39;;;;;;;57.05;29.98;;;;;;;-1.95;78.15;102516.31;7384356;19;20022;-60
2021/12/22 07:29:08;;;;;;;57.80;30.75;;;;;;;-1.95;78.34;102517.22;7390341;19;20348;-61
2021/12/22 07:31:40;;;;;;;58.97;31.13;;;;;;;-1.87;78.34;102521.75;7393431;19;20034;-59
2021/12/22 07:34:17;;;;;;;58.53;31.90;;;;;;;-1.88;78.46;102513.13;7395245;19;20024;-61
2021/12/22 07:36:52;;;;;;;56.13;29.88;;;;;;;-1.85;78.50;102518.38;7393944;19;20094;-60
2021/12/22 07:39:21;;;;;;;57.47;30.63;;;;;;;-1.84;78.44;102514.13;7397050;19;20067;-60
2021/12/22 07:41:50;;;;;;;58.25;30.83;;;;;;;-1.80;78.26;102509.13;7393302;19;20021;-60
2021/12/22 07:44:19;;;;;;;53.72;29.33;;;;;;;-1.75;77.83;102506.72;7395179;19;20015;-63
2021/12/22 07:46:51;;;;;;;57.38;29.23;;;;;;;-1.73;77.70;102507.66;7396900;19;20029;-61
2021/12/22 07:49:20;;;;;;;50.47;27.80;;;;;;;-1.79;77.99;102503.19;7399332;19;20018;-60
2021/12/22 07:51:48;;;;;;;53.92;28.33;;;;;;;-1.71;78.12;102500.00;7396105;19;20482;-63
2021/12/22 07:54:18;;;;;;;59.33;30.48;;;;;;;-1.68;78.11;102500.97;7396437;19;20499;-61
2021/12/22 07:56:47;;;;;;;56.60;29.33;;;;;;;-1.65;78.31;102502.78;7396837;19;20014;-62
2021/12/22 07:59:16;;;;;;;58.28;30.05;;;;;;;-1.65;78.35;102498.53;7395132;19;20335;-61
2021/12/22 08:01:45;;;;;;;58.88;29.17;;;;;;;-1.60;78.28;102499.53;7393544;19;20096;-62
2021/12/22 08:04:17;;;;;;;59.80;31.05;;;;;;;-1.58;77.89;102497.91;7394872;19;20015;-63
2021/12/22 08:06:46;;;;;;;54.07;29.30;;;;;;;-1.58;78.01;102495.34;7393968;19;20024;-60
2021/12/22 08:09:15;;;;;;;59.83;30.25;;;;;;;-1.60;78.20;102496.97;7394833;19;20270;-59
2021/12/22 08:11:43;;;;;;;55.50;29.27;;;;;;;-1.58;77.81;102497.00;7393932;19;20020;-61
2021/12/22 08:14:12;;;;;;;57.08;28.77;;;;;;;-1.55;77.82;102499.69;7394744;19;20413;-60
2021/12/22 08:16:41;;;;;;;55.28;28.55;;;;;;;-1.57;77.50;102503.91;7390854;19;20026;-62
2021/12/22 08:19:10;;;;;;;53.05;27.30;;;;;;;-1.58;77.50;102497.00;7392557;19;20018;-60
2021/12/22 08:21:44;;;;;;;53.95;28.38;;;;;;;-1.61;77.60;102500.34;7394026;19;20014;-58
2021/12/22 08:24:14;;;;;;;52.67;27.95;;;;;;;-1.61;77.70;102492.63;7396435;19;20026;-57
2021/12/22 08:26:43;;;;;;;53.80;27.63;;;;;;;-1.65;77.95;102492.50;7394722;19;20510;-59
2021/12/22 08:29:12;;;;;;;55.38;28.95;;;;;;;-1.62;78.07;102492.59;7394335;19;20081;-57
2021/12/22 08:31:41;;;;;;;47.90;26.08;;;;;;;-1.59;78.21;102492.69;7392786;19;20011;-58
2021/12/22 08:34:12;;;;;;;51.28;25.92;;;;;;;-1.51;78.24;102490.38;7395476;19;20147;-54
2021/12/22 08:39:26;;;;;;;50.78;27.35;;;;;;;-1.47;78.13;102493.09;7392203;19;20019;-55
2021/12/22 08:41:55;;;;;;;54.00;27.73;;;;;;;-1.44;78.28;102485.47;7393471;19;20015;-58
2021/12/22 08:44:26;;;;;;;50.65;27.38;;;;;;;-1.38;78.13;102478.81;7395683;19;20480;-59
2021/12/22 08:46:56;;;;;;;47.60;25.95;;;;;;;-1.32;77.83;102473.84;7393894;19;20030;-56
2021/12/22 08:49:25;;;;;;;53.83;27.55;;;;;;;-1.30;77.56;102485.94;7393317;19;20019;-57
2021/12/22 08:51:56;;;;;;;51.40;26.08;;;;;;;-1.27;77.49;102490.31;7393724;19;20022;-57
2021/12/22 08:54:25;;;;;;;50.97;26.47;;;;;;;-1.30;77.54;102485.94;7400404;19;20014;-56
2021/12/22 08:56:55;;;;;;;50.60;26.20;;;;;;;-1.26;77.63;102487.78;7394704;19;20007;-54
2021/12/22 08:59:25;;;;;;;50.72;27.17;;;;;;;-1.21;77.62;102487.91;7396383;19;20089;-53
2021/12/22 09:01:55;;;;;;;53.15;26.67;;;;;;;-1.24;77.54;102487.81;7392842;19;20171;-59
2021/12/22 09:04:24;;;;;;;48.35;26.10;;;;;;;-1.21;77.74;102477.63;7392202;19;20011;-57
2021/12/22 09:06:56;;;;;;;45.15;24.58;;;;;;;-1.15;77.76;102490.66;7393571;19;20027;-52
2021/12/22 09:09:25;;;;;;;47.80;26.85;;;;;;;-1.16;77.90;102495.75;7395396;19;20021;-53
2021/12/22 09:11:54;;;;;;;42.50;24.83;;;;;;;-1.09;77.92;102495.13;7392741;19;20029;-57
2021/12/22 09:14:25;;;;;;;43.47;23.33;;;;;;;-1.05;77.78;102494.41;7395465;19;20013;-57
2021/12/22 09:16:55;;;;;;;44.33;23.27;;;;;;;-0.98;77.43;102498.06;7395485;19;20483;-54
2021/12/22 09:19:24;;;;;;;44.97;23.95;;;;;;;-0.93;77.46;102502.50;7396174;19;20591;-57
2021/12/22 09:21:55;;;;;;;43.33;23.10;;;;;;;-0.87;77.41;102506.97;7394624;19;20078;-57
2021/12/22 09:24:24;;;;;;;45.40;23.40;;;;;;;-0.85;77.43;102502.72;7394145;19;20014;-58
2021/12/22 09:26:53;;;;;;;39.45;22.92;;;;;;;-0.83;77.40;102495.06;7394080;19;20028;-58
2021/12/22 09:29:26;;;;;;;38.33;21.40;;;;;;;-0.74;77.57;102501.34;7395152;19;20023;-58
2021/12/22 09:31:56;;;;;;;36.20;21.15;;;;;;;-0.62;77.35;102507.69;7391124;19;20019;-57
2021/12/22 09:34:24;;;;;;;39.63;21.17;;;;;;;-0.58;76.96;102502.66;7392129;19;20018;-57
2021/12/22 09:36:56;;;;;;;31.20;19.67;;;;;;;-0.51;76.94;102508.88;7390801;19;20078;-60
2021/12/22 09:39:25;;;;;;;35.22;20.50;;;;;;;-0.46;76.80;102503.84;7393441;19;20393;-57
2021/12/22 09:41:54;;;;;;;34.58;19.92;;;;;;;-0.39;76.44;102506.66;7391488;19;20087;-56
2021/12/22 09:44:24;;;;;;;35.10;19.75;;;;;;;-0.30;76.27;102498.31;7396392;19;20029;-58
2021/12/22 09:46:53;;;;;;;33.97;20.10;;;;;;;-0.22;76.19;102489.09;7394512;19;20018;-56
2021/12/22 09:49:36;;;;;;;32.05;19.45;;;;;;;-0.16;76.03;102490.09;7393632;19;20013;-59
2021/12/22 09:52:23;;;;;;;;;;;;;;;-0.25;76.20;102486.44;7390746;19;20019;-61
2021/12/22 09:54:54;;;;;;;35.35;19.25;;;;;;;-0.23;76.15;102489.94;7391368;19;20340;-55
2021/12/22 09:57:25;;;;;;;34.00;19.00;;;;;;;-0.14;76.06;102481.59;7390119;19;20023;-57
2021/12/22 09:59:56;;;;;;;32.35;18.70;;;;;;;-0.08;75.81;102486.03;7390859;19;20006;-59
2021/12/22 10:02:29;;;;;;;34.53;19.35;;;;;;;-0.08;75.78;102481.72;7389779;19;20021;-55
2021/12/22 10:04:59;;;;;;;32.85;20.10;;;;;;;-0.03;75.58;102492.16;7387917;19;20019;-56
2021/12/22 10:07:37;;;;;;;29.00;17.00;;;;;;;0.05;75.41;102494.97;7389813;19;20021;-58
2021/12/22 10:10:10;;;;;;;30.95;17.88;;;;;;;0.05;75.25;102492.38;7389920;19;20014;-58
2021/12/22 10:12:39;;;;;;;28.75;18.20;;;;;;;0.13;75.13;102490.84;7388713;19;20014;-60
2021/12/22 10:15:12;;;;;;;32.80;18.90;;;;;;;0.18;75.13;102489.28;7389407;19;20026;-59
2021/12/22 10:17:44;;;;;;;26.35;16.95;;;;;;;0.23;74.84;102477.41;7388387;19;20011;-57
2021/12/22 10:20:16;;;;;;;29.02;17.40;;;;;;;0.29;74.75;102476.69;7390075;19;20025;-57
2021/12/22 10:22:51;;;;;;;31.17;18.65;;;;;;;0.35;75.02;102476.81;7388644;19;20379;-56
2021/12/22 10:25:25;;;;;;;27.90;17.67;;;;;;;0.36;74.73;102476.00;7392624;19;20018;-59
2021/12/22 10:28:04;;;;;;;25.27;16.42;;;;;;;0.39;74.61;102473.47;7389962;19;20384;-59
2021/12/22 10:30:36;;;;;;;26.35;16.60;;;;;;;0.44;74.62;102471.00;7388494;19;20491;-59
2021/12/22 10:33:08;;;;;;;29.75;18.05;;;;;;;0.48;74.47;102475.41;7390024;19;20014;-61
2021/12/22 10:35:38;;;;;;;29.45;17.60;;;;;;;0.45;74.26;102470.19;7389658;19;20007;-58
2021/12/22 10:38:12;;;;;;;26.38;16.60;;;;;;;0.46;74.45;102459.00;7388406;19;20017;-59
2021/12/22 10:40:42;;;;;;;30.48;17.23;;;;;;;0.47;74.14;102460.75;7304078;19;20010;-58
2021/12/22 10:43:18;;;;;;;27.85;16.90;;;;;;;0.43;74.23;102462.41;7390422;19;20021;-61
2021/12/22 10:45:50;;;;;;;29.13;17.02;;;;;;;0.47;74.41;102453.91;7389342;19;20014;-61
2021/12/22 10:51:03;;;;;;;30.48;17.88;;;;;;;0.50;74.46;102437.63;7388260;19;19926;-57
2021/12/22 10:53:43;;;;;;;26.73;16.10;;;;;;;0.51;74.45;102445.41;7389054;19;20010;-55
2021/12/22 10:56:23;;;;;;;29.25;17.02;;;;;;;0.56;74.67;102453.25;7387734;19;20340;-58
2021/12/22 10:59:02;;;;;;;29.20;16.48;;;;;;;0.57;74.67;102460.16;7388089;19;20026;-55
2021/12/22 11:01:31;;;;;;;24.65;16.45;;;;;;;0.56;74.48;102449.78;7388765;19;20011;-59
2021/12/22 11:04:06;;;;;;;27.58;17.77;;;;;;;0.52;74.17;102446.28;7401570;19;20014;-57
2021/12/22 11:06:37;;;;;;;29.38;16.70;;;;;;;0.52;74.70;102435.97;7403708;19;20022;-58
2021/12/22 11:09:13;;;;;;;30.13;18.13;;;;;;;0.57;74.52;102444.66;7403042;19;20022;-57
2021/12/22 11:11:44;;;;;;;26.45;16.80;;;;;;;0.58;74.52;102438.69;7401913;19;20037;-57
2021/12/22 11:14:17;;;;;;;26.88;16.45;;;;;;;0.57;74.56;102436.94;7407155;19;20026;-54
2021/12/22 11:17:11;;;;;;;25.35;16.33;;;;;;;0.62;74.74;102430.19;7401653;19;20440;-57
2021/12/22 11:19:53;;;;;;;25.73;17.00;;;;;;;0.68;74.79;102429.44;7401511;19;20033;-58
2021/12/22 11:22:35;;;;;;;26.35;16.75;;;;;;;0.77;74.56;102421.03;7402279;19;20488;-60
2021/12/22 11:25:11;;;;;;;23.55;16.15;;;;;;;0.84;74.35;102410.88;7404269;19;20109;-58
2021/12/22 11:27:41;;;;;;;25.75;16.42;;;;;;;0.89;73.95;102407.53;7404474;19;20018;-57
2021/12/22 11:30:10;;;;;;;26.48;17.35;;;;;;;0.95;73.84;102397.38;7402848;19;20781;-59
2021/12/22 11:32:39;;;;;;;24.42;16.15;;;;;;;0.93;73.60;102399.91;7400598;19;20011;-60
2021/12/22 11:35:13;;;;;;;25.65;16.13;;;;;;;0.94;73.64;102398.19;7403636;19;20090;-58
2021/12/22 11:37:43;;;;;;;27.80;17.60;;;;;;;0.91;73.75;102400.72;7405269;19;20348;-56